Stations météo

réclame
Mon MeteoGroup
Hano, Suède (2628): Température de l'air & dewpoint: 18.01.2018 10:00:00 - 24.01.2018 10:00:00 (CET)Hano, Suède (2628): Vitesse du vent & gusts: 18.01.2018 10:00:00 - 24.01.2018 10:00:00 (CET)Hano, Suède (2628): Direction du vent: 18.01.2018 10:00:00 - 24.01.2018 10:00:00 (CET)Hano, Suède (2628): visibility: 18.01.2018 10:00:00 - 24.01.2018 10:00:00 (CET)Hano, Suède (2628): Quantités de précipitations: 18.01.2018 10:00:00 - 24.01.2018 10:00:00 (CET)
Date & Time tt [°C] td [°C] ff [km/h] ff [knt] fx [km/h] fx [knt] dd vv [km] rr [mm]
24.01.2018 10:00:00 5,3 5,2 39 21 52 28 SW 7 0,0
24.01.2018 09:00:00 5,1 5,0 36 20 50 27 SW 3,8 0,0
24.01.2018 08:00:00 5,0 4,9 32 18 52 28 SW 4,5 0,0
24.01.2018 07:00:00 5,0 4,9 42 23 66 36 SW 0,7 0,0
24.01.2018 06:00:00 4,8 4,7 42 23 73 39 SW 2,3 0,0
24.01.2018 05:00:00 4,3 4,2 51 28 77 42 SW 2,7 0,0
24.01.2018 04:00:00 3,9 3,8 55 30 77 42 SW 2,0 0,4
24.01.2018 03:00:00 3,7 3,6 53 28 76 41 SSW 2,7 0,8
24.01.2018 02:00:00 3,4 3,1 46 25 68 37 SSW 2,2 0,5
24.01.2018 01:00:00 3,2 3,1 43 23 66 35 SSW 1,9 1,4
24.01.2018 00:00:00 3,1 3,0 42 23 67 36 SSW 1,7 0,0
23.01.2018 23:00:00 2,7 2,6 43 23 67 36 S 0,4 0,0
23.01.2018 22:00:00 2,3 2,2 44 24 62 33 S 1,2 0,3
23.01.2018 21:00:00 1,9 1,6 38 20 62 33 S 1,9 0,0
23.01.2018 20:00:00 1,5 0,9 38 20 53 29 S 2,9 0,0
23.01.2018 19:00:00 1,1 -0,1 34 19 49 26 SSW 6 0,0
23.01.2018 18:00:00 0,7 -0,9 32 17 49 27 SSW 6 0,0
23.01.2018 17:00:00 0,3 -1,8 32 18 49 27 SSW 6 0,0
23.01.2018 16:00:00 0,5 -1,7 27 15 44 24 SSW 7 0,0
23.01.2018 15:00:00 0,6 -2,1 25 13 39 21 SSW 8 0,0
23.01.2018 14:00:00 0,5 -2,7 24 13 39 21 S 7 0,0
23.01.2018 13:00:00 0,4 -3,2 20 11 39 21 S 8 0,0
23.01.2018 12:00:00 0,6 -3,9 26 14 38 21 SSW 9 0,0
23.01.2018 11:00:00 0,8 -3,3 23 13 39 21 S 9 0,0
23.01.2018 10:00:00 0,9 -4,1 26 14 39 21 S 10 0,0
23.01.2018 09:00:00 0,8 -4,0 17 9 35 19 S 10 0,0
23.01.2018 08:00:00 0,7 -4,7 24 13 35 19 SSE 11 0,0
23.01.2018 07:00:00 0,4 -4,6 9 5 29 16 SSE 11 0,0
23.01.2018 06:00:00 0,7 -4,3 14 8 29 16 S 12 0,0
23.01.2018 05:00:00 0,6 -3,9 17 9 26 14 SSE 12 0,0
23.01.2018 04:00:00 0,5 -3,2 15 8 25 14 SE 11 0,0
23.01.2018 03:00:00 0,3 -3,4 14 8 28 15 ESE 10 0,0
23.01.2018 02:00:00 0,2 -3,4 12 7 33 18 SE 10 0,0
23.01.2018 01:00:00 0,2 -3,5 22 12 33 18 SE 10 0,0
23.01.2018 00:00:00 0,3 -3,1 18 10 32 18 SSE 11 0,0
22.01.2018 23:00:00 0,4 -3,2 20 11 37 20 SSE 10 0,0
22.01.2018 22:00:00 0,4 -3,3 22 12 38 20 SE 11 0,0
22.01.2018 21:00:00 0,5 -3,1 27 15 40 22 SE 10 0,0
22.01.2018 20:00:00 0,6 -2,8 26 14 40 22 SE 9 0,0
22.01.2018 19:00:00 1,0 -2,6 28 15 38 20 SE 10 0,0
22.01.2018 18:00:00 0,8 -2,9 24 13 38 20 SSE 13 0,0
22.01.2018 17:00:00 0,8 -2,6 22 12 36 19 SSE 14 0,0
22.01.2018 16:00:00 0,7 -2,9 14 8 28 15 SSE 15 0,0
22.01.2018 15:00:00 0,9 -3,4 18 10 32 17 S 16 0,0
22.01.2018 14:00:00 1,1 -2,7 16 9 33 18 S 15 0,0
22.01.2018 13:00:00 0,9 -2,9 21 11 33 18 S 18 0,0
22.01.2018 12:00:00 0,9 -2,7 18 10 31 17 S 19 0,0
22.01.2018 11:00:00 1,0 -3,1 18 10 30 16 S 10 0,0
22.01.2018 10:00:00 0,8 -3,1 20 11 30 16 S 12 0,0
22.01.2018 09:00:00 0,7 -2,7 16 9 32 18 S 12 0,0
22.01.2018 08:00:00 0,7 -1,7 10 6 32 18 S 20 0,0
22.01.2018 07:00:00 0,6 -2,0 18 10 30 16 SSW 19 0,0
22.01.2018 06:00:00 0,6 -0,5 16 9 24 13 SW 9 0,0
22.01.2018 05:00:00 0,5 -0,4 12 6 15 8 W 10 0,0
22.01.2018 04:00:00 0,8 -0,5 3 1 7 4 N 20 0,0
22.01.2018 03:00:00 0,8 -0,5 0 0 6 3 N 18 0,0
22.01.2018 02:00:00 0,1 -1,2 2 1 6 3 S 20 0,0
22.01.2018 01:00:00 0,0 -1,4 4 2 5 3 SW 21 0,0
22.01.2018 00:00:00 0,1 -1,5 3 2 8 4 SSW 22 0,0
21.01.2018 23:00:00 0,1 -1,3 4 2 9 5 NW 19 0,0
21.01.2018 22:00:00 -0,1 -1,4 6 3 10 6 NNW 17 0,0
21.01.2018 21:00:00 0,0 -1,6 4 2 10 6 W 21 0,0
21.01.2018 20:00:00 0,0 -1,3 3 2 12 7 WNW 17 0,0
21.01.2018 19:00:00 0,0 -0,7 5 3 16 9 W 11 0,0
21.01.2018 18:00:00 0,0 -0,7 9 5 16 9 WNW 14 0,0
21.01.2018 17:00:00 0,0 -0,4 14 8 14 8 WNW 8 0,0
21.01.2018 16:00:00 0,0 -1,0 0 0 16 9 N 19 0,0
21.01.2018 15:00:00 0,3 -1,0 11 6 18 10 NNE 25 0,0
21.01.2018 14:00:00 0,2 -1,1 11 6 18 10 NNE 28 0,0
21.01.2018 13:00:00 0,1 -0,9 10 6 19 11 NNE 23 0,0
21.01.2018 12:00:00 -0,6 -0,7 8 4 19 11 ENE 11 0,0
21.01.2018 11:00:00 -0,5 -0,6 10 5 16 9 NE 8 0,0
21.01.2018 10:00:00 -0,4 -0,5 9 5 24 13 NE 6 0,0
21.01.2018 09:00:00 -0,6 -0,7 13 7 24 13 ENE 1,1 0,0
21.01.2018 08:00:00 -0,3 -0,4 14 8 23 12 ENE 0,4 0,0
21.01.2018 07:00:00 -0,4 -0,5 16 9 23 12 ENE 0,2 0,0
21.01.2018 06:00:00 0,4 0,1 17 9 22 12 ENE 11 0,0
21.01.2018 05:00:00 0,5 0,4 19 10 22 12 NE 9 0,0
21.01.2018 04:00:00 0,4 0,3 8 4 23 12 ENE 9 0,2
21.01.2018 03:00:00 0,2 0,1 16 8 23 12 E 0,4 0,1
21.01.2018 02:00:00 0,4 0,3 15 8 19 11 E 1,2 0,5
21.01.2018 01:00:00 0,5 0,3 12 6 21 11 NNE 12 0,0
21.01.2018 00:00:00 0,3 0,2 7 4 24 13 NNE 0,4 0,6
20.01.2018 23:00:00 0,8 0,5 17 9 24 13 E 6 0,6
20.01.2018 22:00:00 0,9 0,5 4 2 9 5 NE 10 0,2
20.01.2018 21:00:00 0,9 0,6 4 2 8 4 E 8 0,1
20.01.2018 20:00:00 0,5 0,2 3 2 26 14 SE 17 0,0
20.01.2018 19:00:00 0,3 0,2 4 2 26 14 S 1,0 1,7
20.01.2018 18:00:00 1,1 1,0 11 6 18 10 SSE 2,0 0,0
20.01.2018 17:00:00 0,5 0,2 5 3 10 5 N 0,7 0,0
20.01.2018 16:00:00 0,9 0,5 4 2 13 7 SW 10 0,0
20.01.2018 15:00:00 1,0 0,7 6 3 18 10 W 8 0,0
20.01.2018 14:00:00 1,1 0,7 11 6 18 10 WSW 12 0,0
20.01.2018 13:00:00 1,8 1,1 13 7 17 9 WSW 19 0,0
20.01.2018 12:00:00 1,9 1,5 8 4 27 14 WSW 15 0,0
20.01.2018 11:00:00 1,7 1,4 6 4 31 17 S 12 0,3
20.01.2018 10:00:00 1,4 1,1 16 9 31 17 SE 7 0,3
20.01.2018 09:00:00 1,7 1,1 15 8 25 14 S 8 0,4
20.01.2018 08:00:00 2,0 0,5 14 8 25 14 S 9 0,0
20.01.2018 07:00:00 2,3 0,7 16 9 25 13 S 16 0,0
20.01.2018 06:00:00 1,8 0,6 9 5 15 8 SE 27 0,0
20.01.2018 05:00:00 1,6 0,4 10 6 18 10 ESE 35 0,0
20.01.2018 04:00:00 1,8 0,9 11 6 18 10 SSE 30 0,0
20.01.2018 03:00:00 2,0 1,0 13 7 19 11 S 34 0,0
20.01.2018 02:00:00 1,9 0,7 12 6 19 11 S 35 0,0
20.01.2018 01:00:00 1,9 1,0 11 6 23 12 S 23 0,0
20.01.2018 00:00:00 1,2 0,6 16 9 23 12 ESE 26 0,0
19.01.2018 23:00:00 0,9 0,2 18 10 24 13 ESE 22 0,2
19.01.2018 22:00:00 1,7 0,2 12 6 24 13 S 13 0,0
19.01.2018 21:00:00 1,6 -0,8 14 8 18 10 ESE 33 0,0
19.01.2018 20:00:00 1,1 -0,8 8 5 11 6 ESE 34 0,0
19.01.2018 19:00:00 0,7 -0,9 4 2 6 4 E 26 0,0
19.01.2018 18:00:00 0,3 -1,6 0 0 7 4 N 30 0,0
19.01.2018 17:00:00 0,2 -1,2 5 3 10 5 SW 28 0,0
19.01.2018 16:00:00 0,2 -1,4 6 3 11 6 WSW 27 0,0
19.01.2018 15:00:00 0,5 -2,4 9 5 11 6 WSW 28 0,0
19.01.2018 14:00:00 0,7 -2,4 6 3 11 6 NNW 18 0,0
19.01.2018 13:00:00 0,2 -1,9 9 5 11 6 NW 14 0,0
19.01.2018 12:00:00 -0,3 -1,9 6 3 11 6 NNW 19 0,0
19.01.2018 11:00:00 0,2 -1,7 6 3 17 9 NNW 23 0,0
19.01.2018 10:00:00 -0,6 -1,8 9 5 19 10 NNW 20 0,0
19.01.2018 09:00:00 -0,7 -1,5 14 8 19 11 NNW 16 0,0
19.01.2018 08:00:00 -0,8 -1,6 13 7 19 11 NNW 15 0,0
19.01.2018 07:00:00 -0,5 -1,3 13 7 22 12 NNW 17 0,0
19.01.2018 06:00:00 -0,2 -1,2 11 6 25 14 N 25 0,0
19.01.2018 05:00:00 -0,1 -0,9 16 9 26 14 NNW 15 0,0
19.01.2018 04:00:00 -0,1 -0,9 18 10 26 14 NNW 15 0,0
19.01.2018 03:00:00 -0,1 -1,1 16 9 27 15 NNW 24 0,0
19.01.2018 02:00:00 -0,1 -0,9 19 11 28 15 N 21 0,0
19.01.2018 01:00:00 -0,5 -1,2 21 11 29 16 N 25 0,0
19.01.2018 00:00:00 0,0 -0,7 23 12 32 17 N 24 0,0
18.01.2018 23:00:00 0,2 -0,7 23 12 37 20 NNE 24 0,0
18.01.2018 22:00:00 0,5 -0,4 25 14 43 23 NNE 25 0,0
18.01.2018 21:00:00 0,9 0,0 34 18 49 27 NE 19 0,0
18.01.2018 20:00:00 1,0 0,3 39 21 49 27 NE 21 0,0
18.01.2018 19:00:00 1,1 0,7 35 19 45 24 ENE 18 0,0
18.01.2018 18:00:00 1,2 0,9 36 19 44 24 ENE 10 0,5
18.01.2018 17:00:00 1,1 0,8 33 18 43 23 ENE 9 0,0
18.01.2018 16:00:00 1,6 1,0 26 14 34 18 ENE 21 0,0
18.01.2018 15:00:00 1,8 0,8 14 8 33 18 E 22 0,0
18.01.2018 14:00:00 1,7 0,7 16 9 33 18 SSE 15 0,1
18.01.2018 13:00:00 2,0 -0,3 13 7 19 10 ESE 29 0,0
18.01.2018 12:00:00 1,7 -0,4 12 6 19 10 ESE 24 0,0
18.01.2018 11:00:00 1,6 -1,0 13 7 19 10 SSE 29 0,0
18.01.2018 10:00:00 1,6 -1,0 9 5 21 11 S 24 0,0

tt = Température de l'air
td = dewpoint
ff = Vitesse du vent
fx = gusts
dd = Direction du vent
vv = visibility
rr = Quantités de précipitations

stations d'obs. à proximité